sensor_id;sensor_type;location;lat;lon;timestamp;pressure;altitude;pressure_sealevel;temperature;humidity
25869;BME280;13688;53.154;18.136;2023-08-12T00:04:16;101581.95;;;12.16;100.00
25869;BME280;13688;53.154;18.136;2023-08-12T00:09:39;101583.71;;;12.17;100.00
25869;BME280;13688;53.154;18.136;2023-08-12T00:15:01;101588.02;;;12.19;100.00
25869;BME280;13688;53.154;18.136;2023-08-12T00:20:24;101590.94;;;12.16;100.00
25869;BME280;13688;53.154;18.136;2023-08-12T00:31:12;101597.06;;;12.31;100.00
25869;BME280;13688;53.154;18.136;2023-08-12T00:36:34;101597.94;;;12.19;100.00
25869;BME280;13688;53.154;18.136;2023-08-12T00:41:57;101600.31;;;11.98;100.00
25869;BME280;13688;53.154;18.136;2023-08-12T00:47:20;101600.28;;;11.85;100.00
25869;BME280;13688;53.154;18.136;2023-08-12T00:52:43;101603.80;;;11.73;100.00
25869;BME280;13688;53.154;18.136;2023-08-12T00:58:07;101599.03;;;11.64;100.00
25869;BME280;13688;53.154;18.136;2023-08-12T01:03:30;101600.63;;;11.54;100.00
25869;BME280;13688;53.154;18.136;2023-08-12T01:08:53;101597.23;;;11.37;100.00
25869;BME280;13688;53.154;18.136;2023-08-12T01:14:42;101601.97;;;11.34;100.00
25869;BME280;13688;53.154;18.136;2023-08-12T01:20:25;101599.89;;;11.25;100.00
25869;BME280;13688;53.154;18.136;2023-08-12T01:25:48;101591.17;;;11.21;100.00
25869;BME280;13688;53.154;18.136;2023-08-12T01:31:18;101586.03;;;11.31;100.00
25869;BME280;13688;53.154;18.136;2023-08-12T01:36:43;101597.84;;;11.28;100.00
25869;BME280;13688;53.154;18.136;2023-08-12T01:42:09;101592.46;;;11.28;100.00
25869;BME280;13688;53.154;18.136;2023-08-12T01:47:33;101586.56;;;11.36;100.00
25869;BME280;13688;53.154;18.136;2023-08-12T01:52:59;101587.67;;;11.46;100.00
25869;BME280;13688;53.154;18.136;2023-08-12T01:58:21;101583.71;;;11.52;100.00
25869;BME280;13688;53.154;18.136;2023-08-12T02:03:44;101586.39;;;11.39;100.00
25869;BME280;13688;53.154;18.136;2023-08-12T02:09:06;101579.81;;;11.43;100.00
25869;BME280;13688;53.154;18.136;2023-08-12T02:14:29;101585.30;;;11.41;100.00
25869;BME280;13688;53.154;18.136;2023-08-12T02:19:51;101580.21;;;11.37;100.00
25869;BME280;13688;53.154;18.136;2023-08-12T02:25:14;101580.03;;;11.40;100.00
25869;BME280;13688;53.154;18.136;2023-08-12T02:30:37;101586.92;;;11.44;100.00
25869;BME280;13688;53.154;18.136;2023-08-12T02:36:00;101586.92;;;11.44;100.00
25869;BME280;13688;53.154;18.136;2023-08-12T02:41:22;101574.94;;;11.35;100.00
25869;BME280;13688;53.154;18.136;2023-08-12T02:46:45;101580.03;;;11.40;100.00
25869;BME280;13688;53.154;18.136;2023-08-12T02:52:07;101586.28;;;11.40;100.00
25869;BME280;13688;53.154;18.136;2023-08-12T02:57:30;101582.55;;;11.29;100.00
25869;BME280;13688;53.154;18.136;2023-08-12T03:02:53;101576.98;;;11.32;100.00
25869;BME280;13688;53.154;18.136;2023-08-12T03:08:15;101587.08;;;11.28;100.00
25869;BME280;13688;53.154;18.136;2023-08-12T03:13:38;101600.21;;;11.20;100.00
25869;BME280;13688;53.154;18.136;2023-08-12T03:19:01;101587.04;;;11.15;100.00
25869;BME280;13688;53.154;18.136;2023-08-12T03:24:23;101585.78;;;11.21;100.00
25869;BME280;13688;53.154;18.136;2023-08-12T03:29:46;101601.61;;;11.26;100.00
25869;BME280;13688;53.154;18.136;2023-08-12T03:35:09;101590.20;;;11.22;100.00
25869;BME280;13688;53.154;18.136;2023-08-12T03:40:31;101598.06;;;11.25;100.00
25869;BME280;13688;53.154;18.136;2023-08-12T03:45:54;101591.27;;;11.20;100.00
25869;BME280;13688;53.154;18.136;2023-08-12T03:51:16;101604.55;;;11.35;100.00
25869;BME280;13688;53.154;18.136;2023-08-12T03:56:39;101606.63;;;11.44;100.00
25869;BME280;13688;53.154;18.136;2023-08-12T04:02:01;101605.80;;;11.57;100.00
25869;BME280;13688;53.154;18.136;2023-08-12T04:07:24;101608.84;;;11.65;100.00
25869;BME280;13688;53.154;18.136;2023-08-12T04:12:47;101610.05;;;11.73;100.00
25869;BME280;13688;53.154;18.136;2023-08-12T04:18:09;101610.42;;;11.82;100.00
25869;BME280;13688;53.154;18.136;2023-08-12T04:23:32;101599.87;;;11.91;100.00
25869;BME280;13688;53.154;18.136;2023-08-12T04:28:54;101597.73;;;12.09;100.00
25869;BME280;13688;53.154;18.136;2023-08-12T04:34:17;101592.74;;;12.16;100.00
25869;BME280;13688;53.154;18.136;2023-08-12T04:39:39;101595.99;;;12.21;100.00
25869;BME280;13688;53.154;18.136;2023-08-12T04:45:02;101596.32;;;12.29;100.00
25869;BME280;13688;53.154;18.136;2023-08-12T04:50:25;101596.75;;;12.36;100.00
25869;BME280;13688;53.154;18.136;2023-08-12T04:55:51;101593.91;;;12.50;100.00
25869;BME280;13688;53.154;18.136;2023-08-12T05:01:14;101582.97;;;12.64;100.00
25869;BME280;13688;53.154;18.136;2023-08-12T05:06:36;101580.77;;;12.82;100.00
25869;BME280;13688;53.154;18.136;2023-08-12T05:11:59;101577.08;;;12.96;100.00
25869;BME280;13688;53.154;18.136;2023-08-12T05:17:22;101583.81;;;13.14;100.00
25869;BME280;13688;53.154;18.136;2023-08-12T05:22:44;101582.34;;;13.34;100.00
25869;BME280;13688;53.154;18.136;2023-08-12T05:28:07;101581.96;;;13.62;100.00
25869;BME280;13688;53.154;18.136;2023-08-12T05:33:30;101576.23;;;13.89;100.00
25869;BME280;13688;53.154;18.136;2023-08-12T05:38:53;101571.23;;;14.18;100.00
25869;BME280;13688;53.154;18.136;2023-08-12T05:44:15;101557.10;;;14.37;100.00
25869;BME280;13688;53.154;18.136;2023-08-12T05:49:38;101540.05;;;14.59;100.00
25869;BME280;13688;53.154;18.136;2023-08-12T05:55:00;101545.64;;;14.89;100.00
25869;BME280;13688;53.154;18.136;2023-08-12T06:00:23;101529.04;;;15.15;100.00
25869;BME280;13688;53.154;18.136;2023-08-12T06:05:47;101531.48;;;15.50;100.00
25869;BME280;13688;53.154;18.136;2023-08-12T06:11:09;101521.86;;;15.78;100.00
25869;BME280;13688;53.154;18.136;2023-08-12T06:16:32;101513.64;;;16.20;100.00
25869;BME280;13688;53.154;18.136;2023-08-12T06:21:54;101513.06;;;16.56;100.00
25869;BME280;13688;53.154;18.136;2023-08-12T06:27:17;101503.16;;;16.96;100.00
25869;BME280;13688;53.154;18.136;2023-08-12T06:32:42;101501.45;;;17.33;100.00
25869;BME280;13688;53.154;18.136;2023-08-12T06:38:05;101499.42;;;17.74;100.00
25869;BME280;13688;53.154;18.136;2023-08-12T06:43:29;101499.61;;;18.10;100.00
25869;BME280;13688;53.154;18.136;2023-08-12T06:48:51;101493.02;;;18.40;100.00
25869;BME280;13688;53.154;18.136;2023-08-12T06:54:15;101497.06;;;18.63;100.00
25869;BME280;13688;53.154;18.136;2023-08-12T06:59:39;101487.30;;;18.88;100.00
25869;BME280;13688;53.154;18.136;2023-08-12T07:05:06;101481.17;;;19.22;100.00
25869;BME280;13688;53.154;18.136;2023-08-12T07:10:30;101466.70;;;19.65;100.00
25869;BME280;13688;53.154;18.136;2023-08-12T07:16:02;101462.14;;;19.99;100.00
25869;BME280;13688;53.154;18.136;2023-08-12T07:21:29;101461.63;;;20.38;100.00
25869;BME280;13688;53.154;18.136;2023-08-12T07:26:52;101466.00;;;20.65;100.00
25869;BME280;13688;53.154;18.136;2023-08-12T07:32:18;101471.63;;;20.64;100.00
25869;BME280;13688;53.154;18.136;2023-08-12T07:37:51;101471.19;;;20.93;100.00
25869;BME280;13688;53.154;18.136;2023-08-12T07:43:19;101462.48;;;20.89;100.00
25869;BME280;13688;53.154;18.136;2023-08-12T07:48:43;101470.67;;;20.89;98.07
25869;BME280;13688;53.154;18.136;2023-08-12T07:54:09;101451.02;;;20.94;97.37
25869;BME280;13688;53.154;18.136;2023-08-12T07:59:33;101453.60;;;21.11;95.36
25869;BME280;13688;53.154;18.136;2023-08-12T08:05:01;101454.83;;;21.50;98.42
25869;BME280;13688;53.154;18.136;2023-08-12T08:10:25;101448.13;;;21.68;92.27
25869;BME280;13688;53.154;18.136;2023-08-12T08:15:50;101446.39;;;21.84;85.91
25869;BME280;13688;53.154;18.136;2023-08-12T08:21:13;101442.42;;;21.94;81.18
25869;BME280;13688;53.154;18.136;2023-08-12T08:26:40;101441.56;;;22.10;77.67
25869;BME280;13688;53.154;18.136;2023-08-12T08:32:04;101429.17;;;22.22;75.84
25869;BME280;13688;53.154;18.136;2023-08-12T08:37:28;101425.37;;;22.32;75.78
25869;BME280;13688;53.154;18.136;2023-08-12T08:42:55;101436.06;;;22.49;73.74
25869;BME280;13688;53.154;18.136;2023-08-12T08:48:20;101432.36;;;22.65;70.17
25869;BME280;13688;53.154;18.136;2023-08-12T08:53:47;101430.69;;;22.87;69.58
25869;BME280;13688;53.154;18.136;2023-08-12T08:59:22;101423.80;;;23.14;68.82
25869;BME280;13688;53.154;18.136;2023-08-12T09:04:53;101414.27;;;23.25;63.84
25869;BME280;13688;53.154;18.136;2023-08-12T09:10:19;101407.84;;;22.95;62.26
25869;BME280;13688;53.154;18.136;2023-08-12T09:15:44;101396.94;;;23.09;63.58
25869;BME280;13688;53.154;18.136;2023-08-12T09:21:08;101390.20;;;23.50;64.51
25869;BME280;13688;53.154;18.136;2023-08-12T09:26:44;101393.17;;;23.63;61.89
25869;BME280;13688;53.154;18.136;2023-08-12T09:32:23;101394.70;;;23.65;61.48
25869;BME280;13688;53.154;18.136;2023-08-12T09:37:41;101394.60;;;23.88;62.12
25869;BME280;13688;53.154;18.136;2023-08-12T09:43:07;101396.50;;;23.88;59.53
25869;BME280;13688;53.154;18.136;2023-08-12T09:48:32;101373.94;;;23.92;59.51
25869;BME280;13688;53.154;18.136;2023-08-12T09:53:58;101366.55;;;24.08;60.43
25869;BME280;13688;53.154;18.136;2023-08-12T09:59:30;101355.99;;;24.26;61.17
25869;BME280;13688;53.154;18.136;2023-08-12T10:04:53;101364.50;;;24.46;58.82
25869;BME280;13688;53.154;18.136;2023-08-12T10:10:17;101355.81;;;24.64;57.61
25869;BME280;13688;53.154;18.136;2023-08-12T10:15:41;101359.73;;;24.76;56.83
25869;BME280;13688;53.154;18.136;2023-08-12T10:21:08;101357.38;;;24.51;54.56
25869;BME280;13688;53.154;18.136;2023-08-12T10:26:32;101347.36;;;24.65;56.02
25869;BME280;13688;53.154;18.136;2023-08-12T10:31:58;101338.46;;;24.63;55.01
25869;BME280;13688;53.154;18.136;2023-08-12T10:37:23;101341.53;;;24.75;55.74
25869;BME280;13688;53.154;18.136;2023-08-12T10:42:50;101329.92;;;25.01;54.02
25869;BME280;13688;53.154;18.136;2023-08-12T10:48:27;101328.08;;;25.36;53.82
25869;BME280;13688;53.154;18.136;2023-08-12T10:53:51;101328.98;;;25.43;53.00
25869;BME280;13688;53.154;18.136;2023-08-12T10:59:46;101323.11;;;25.53;53.32
25869;BME280;13688;53.154;18.136;2023-08-12T11:05:11;101312.57;;;25.63;53.09
25869;BME280;13688;53.154;18.136;2023-08-12T11:10:38;101321.81;;;25.83;50.85
25869;BME280;13688;53.154;18.136;2023-08-12T11:16:05;101308.83;;;25.71;50.99
25869;BME280;13688;53.154;18.136;2023-08-12T11:21:30;101297.48;;;25.93;51.43
25869;BME280;13688;53.154;18.136;2023-08-12T11:26:53;101278.09;;;26.28;50.94
25869;BME280;13688;53.154;18.136;2023-08-12T11:32:18;101284.95;;;26.72;49.27
25869;BME280;13688;53.154;18.136;2023-08-12T11:37:44;101285.80;;;26.59;47.89
25869;BME280;13688;53.154;18.136;2023-08-12T11:43:09;101280.28;;;26.46;49.03
25869;BME280;13688;53.154;18.136;2023-08-12T11:48:36;101267.36;;;27.06;48.68
25869;BME280;13688;53.154;18.136;2023-08-12T11:54:02;101269.70;;;27.02;48.42
25869;BME280;13688;53.154;18.136;2023-08-12T11:59:27;101248.54;;;27.54;46.61
25869;BME280;13688;53.154;18.136;2023-08-12T12:04:51;101239.80;;;27.57;45.41
25869;BME280;13688;53.154;18.136;2023-08-12T12:10:19;101246.38;;;27.63;44.79
25869;BME280;13688;53.154;18.136;2023-08-12T12:15:46;101240.48;;;28.36;45.60
25869;BME280;13688;53.154;18.136;2023-08-12T12:21:11;101235.83;;;28.61;44.40
25869;BME280;13688;53.154;18.136;2023-08-12T12:26:38;101232.17;;;28.92;43.83
25869;BME280;13688;53.154;18.136;2023-08-12T12:32:01;101220.52;;;29.08;42.54
25869;BME280;13688;53.154;18.136;2023-08-12T12:37:45;101219.28;;;28.55;43.34
25869;BME280;13688;53.154;18.136;2023-08-12T12:43:29;101224.97;;;29.10;42.60
25869;BME280;13688;53.154;18.136;2023-08-12T12:48:56;101217.11;;;29.43;42.48
25869;BME280;13688;53.154;18.136;2023-08-12T12:54:26;101217.45;;;29.17;40.76
25869;BME280;13688;53.154;18.136;2023-08-12T12:59:51;101213.59;;;29.18;40.92
25869;BME280;13688;53.154;18.136;2023-08-12T13:05:23;101213.52;;;29.61;40.75
25869;BME280;13688;53.154;18.136;2023-08-12T13:10:46;101199.83;;;29.96;40.51
25869;BME280;13688;53.154;18.136;2023-08-12T13:16:14;101197.87;;;30.15;40.06
25869;BME280;13688;53.154;18.136;2023-08-12T13:21:45;101175.74;;;30.97;38.77
25869;BME280;13688;53.154;18.136;2023-08-12T13:27:12;101182.50;;;31.65;38.23
25869;BME280;13688;53.154;18.136;2023-08-12T13:32:55;101179.42;;;31.49;39.89
25869;BME280;13688;53.154;18.136;2023-08-12T13:38:16;101158.80;;;31.33;38.96
25869;BME280;13688;53.154;18.136;2023-08-12T13:43:44;101168.64;;;31.01;39.66
25869;BME280;13688;53.154;18.136;2023-08-12T13:49:09;101153.91;;;31.52;38.37
25869;BME280;13688;53.154;18.136;2023-08-12T13:54:35;101155.98;;;31.74;37.84
25869;BME280;13688;53.154;18.136;2023-08-12T14:00:00;101146.80;;;31.85;38.14
25869;BME280;13688;53.154;18.136;2023-08-12T14:05:29;101136.95;;;32.11;37.59
25869;BME280;13688;53.154;18.136;2023-08-12T14:10:57;101109.75;;;32.30;36.66
25869;BME280;13688;53.154;18.136;2023-08-12T14:16:41;101126.62;;;32.95;36.98
25869;BME280;13688;53.154;18.136;2023-08-12T14:22:05;101117.52;;;33.71;35.89
25869;BME280;13688;53.154;18.136;2023-08-12T14:27:30;101103.14;;;33.57;34.22
25869;BME280;13688;53.154;18.136;2023-08-12T14:32:53;101094.48;;;33.31;34.92
25869;BME280;13688;53.154;18.136;2023-08-12T14:38:16;101092.59;;;32.21;35.58
25869;BME280;13688;53.154;18.136;2023-08-12T14:43:38;101083.04;;;30.86;38.51
25869;BME280;13688;53.154;18.136;2023-08-12T14:49:01;101086.41;;;30.88;38.16
25869;BME280;13688;53.154;18.136;2023-08-12T14:54:24;101073.41;;;31.57;36.94
25869;BME280;13688;53.154;18.136;2023-08-12T14:59:46;101074.80;;;32.22;36.97
25869;BME280;13688;53.154;18.136;2023-08-12T15:05:09;101067.75;;;32.70;37.22
25869;BME280;13688;53.154;18.136;2023-08-12T15:10:32;101057.01;;;32.79;35.98
25869;BME280;13688;53.154;18.136;2023-08-12T15:15:55;101049.19;;;33.41;34.93
25869;BME280;13688;53.154;18.136;2023-08-12T15:21:18;101053.00;;;32.14;36.56
25869;BME280;13688;53.154;18.136;2023-08-12T15:26:41;101041.89;;;30.83;38.54
25869;BME280;13688;53.154;18.136;2023-08-12T15:32:03;101038.23;;;29.66;40.95
25869;BME280;13688;53.154;18.136;2023-08-12T15:37:27;101035.93;;;28.47;43.46
25869;BME280;13688;53.154;18.136;2023-08-12T15:42:54;101040.24;;;27.93;45.79
25869;BME280;13688;53.154;18.136;2023-08-12T15:48:18;101039.67;;;27.53;47.51
25869;BME280;13688;53.154;18.136;2023-08-12T15:53:49;101037.66;;;27.35;49.26
25869;BME280;13688;53.154;18.136;2023-08-12T15:59:12;101038.48;;;27.04;49.13
25869;BME280;13688;53.154;18.136;2023-08-12T16:04:35;101033.44;;;26.81;50.94
25869;BME280;13688;53.154;18.136;2023-08-12T16:09:59;101030.52;;;26.70;51.73
25869;BME280;13688;53.154;18.136;2023-08-12T16:15:24;101032.89;;;26.53;50.98
25869;BME280;13688;53.154;18.136;2023-08-12T16:20:49;101032.72;;;26.48;52.00
25869;BME280;13688;53.154;18.136;2023-08-12T16:26:14;101024.63;;;26.53;52.27
25869;BME280;13688;53.154;18.136;2023-08-12T16:31:37;101023.47;;;26.80;52.04
25869;BME280;13688;53.154;18.136;2023-08-12T16:37:00;101013.78;;;27.48;50.73
25869;BME280;13688;53.154;18.136;2023-08-12T16:42:24;101007.02;;;27.44;49.83
25869;BME280;13688;53.154;18.136;2023-08-12T16:47:47;101008.73;;;27.06;49.81
25869;BME280;13688;53.154;18.136;2023-08-12T16:53:09;101010.11;;;26.84;50.99
25869;BME280;13688;53.154;18.136;2023-08-12T16:58:32;101006.07;;;26.80;51.68
25869;BME280;13688;53.154;18.136;2023-08-12T17:03:54;101008.69;;;26.62;52.36
25869;BME280;13688;53.154;18.136;2023-08-12T17:09:19;101005.14;;;26.48;53.81
25869;BME280;13688;53.154;18.136;2023-08-12T17:14:43;100999.63;;;26.48;54.19
25869;BME280;13688;53.154;18.136;2023-08-12T17:20:05;100997.27;;;26.51;59.14
25869;BME280;13688;53.154;18.136;2023-08-12T17:25:28;101008.97;;;26.40;59.20
25869;BME280;13688;53.154;18.136;2023-08-12T17:30:50;101002.63;;;26.27;74.56
25869;BME280;13688;53.154;18.136;2023-08-12T17:36:15;100997.34;;;26.05;76.29
25869;BME280;13688;53.154;18.136;2023-08-12T17:41:38;100992.72;;;25.79;73.08
25869;BME280;13688;53.154;18.136;2023-08-12T17:47:01;100988.44;;;25.63;71.82
25869;BME280;13688;53.154;18.136;2023-08-12T17:52:27;100988.45;;;25.50;70.36
25869;BME280;13688;53.154;18.136;2023-08-12T17:57:50;100989.46;;;25.23;73.68
25869;BME280;13688;53.154;18.136;2023-08-12T18:03:13;100986.61;;;24.96;76.71
25869;BME280;13688;53.154;18.136;2023-08-12T18:08:36;100988.62;;;24.68;88.41
25869;BME280;13688;53.154;18.136;2023-08-12T18:13:59;100986.98;;;24.32;93.66
25869;BME280;13688;53.154;18.136;2023-08-12T18:19:22;100988.91;;;24.10;95.63
25869;BME280;13688;53.154;18.136;2023-08-12T18:24:44;100988.12;;;23.88;98.80
25869;BME280;13688;53.154;18.136;2023-08-12T18:30:07;100982.04;;;23.65;98.46
25869;BME280;13688;53.154;18.136;2023-08-12T18:35:31;100984.82;;;23.50;100.00
25869;BME280;13688;53.154;18.136;2023-08-12T18:40:54;100986.84;;;23.41;100.00
25869;BME280;13688;53.154;18.136;2023-08-12T18:46:16;100976.64;;;23.35;100.00
25869;BME280;13688;53.154;18.136;2023-08-12T18:51:39;100973.45;;;23.32;100.00
25869;BME280;13688;53.154;18.136;2023-08-12T18:57:01;100973.58;;;23.24;100.00
25869;BME280;13688;53.154;18.136;2023-08-12T19:02:24;100977.30;;;23.16;100.00
25869;BME280;13688;53.154;18.136;2023-08-12T19:07:46;100978.73;;;22.91;100.00
25869;BME280;13688;53.154;18.136;2023-08-12T19:13:11;100983.92;;;22.85;100.00
25869;BME280;13688;53.154;18.136;2023-08-12T19:18:33;100986.67;;;22.85;100.00
25869;BME280;13688;53.154;18.136;2023-08-12T19:23:56;100978.33;;;22.94;100.00
25869;BME280;13688;53.154;18.136;2023-08-12T19:29:18;100988.65;;;22.92;100.00
25869;BME280;13688;53.154;18.136;2023-08-12T19:34:41;100983.16;;;22.77;100.00
25869;BME280;13688;53.154;18.136;2023-08-12T19:40:03;100983.20;;;22.62;100.00
25869;BME280;13688;53.154;18.136;2023-08-12T19:45:28;100974.53;;;22.44;100.00
25869;BME280;13688;53.154;18.136;2023-08-12T19:50:52;100981.80;;;22.37;100.00
25869;BME280;13688;53.154;18.136;2023-08-12T19:56:17;100973.67;;;22.28;100.00
25869;BME280;13688;53.154;18.136;2023-08-12T20:01:41;100975.20;;;22.31;100.00
25869;BME280;13688;53.154;18.136;2023-08-12T20:07:07;100969.99;;;22.36;100.00
25869;BME280;13688;53.154;18.136;2023-08-12T20:12:32;100961.67;;;22.44;100.00
25869;BME280;13688;53.154;18.136;2023-08-12T20:18:00;100964.80;;;22.41;100.00
25869;BME280;13688;53.154;18.136;2023-08-12T20:23:26;100964.61;;;22.43;100.00
25869;BME280;13688;53.154;18.136;2023-08-12T20:28:51;100954.70;;;22.42;100.00
25869;BME280;13688;53.154;18.136;2023-08-12T20:34:18;100950.81;;;22.36;100.00
25869;BME280;13688;53.154;18.136;2023-08-12T20:39:42;100933.62;;;22.27;100.00
25869;BME280;13688;53.154;18.136;2023-08-12T20:45:06;100941.19;;;22.25;100.00
25869;BME280;13688;53.154;18.136;2023-08-12T20:50:29;100941.28;;;22.17;100.00
25869;BME280;13688;53.154;18.136;2023-08-12T20:55:54;100935.16;;;22.15;100.00
25869;BME280;13688;53.154;18.136;2023-08-12T21:01:16;100936.46;;;22.19;100.00
25869;BME280;13688;53.154;18.136;2023-08-12T21:06:39;100931.27;;;22.10;100.00
25869;BME280;13688;53.154;18.136;2023-08-12T21:12:04;100927.69;;;22.09;100.00
25869;BME280;13688;53.154;18.136;2023-08-12T21:17:27;100932.67;;;22.06;100.00
25869;BME280;13688;53.154;18.136;2023-08-12T21:22:50;100942.31;;;22.02;100.00
25869;BME280;13688;53.154;18.136;2023-08-12T21:28:13;100928.98;;;21.98;100.00
25869;BME280;13688;53.154;18.136;2023-08-12T21:33:36;100928.91;;;21.92;100.00
25869;BME280;13688;53.154;18.136;2023-08-12T21:39:00;100915.49;;;21.82;100.00
25869;BME280;13688;53.154;18.136;2023-08-12T21:44:25;100903.70;;;21.82;100.00
25869;BME280;13688;53.154;18.136;2023-08-12T21:49:48;100914.16;;;21.78;100.00
25869;BME280;13688;53.154;18.136;2023-08-12T21:55:11;100907.72;;;21.71;100.00
25869;BME280;13688;53.154;18.136;2023-08-12T22:00:33;100911.77;;;21.60;100.00
25869;BME280;13688;53.154;18.136;2023-08-12T22:05:57;100906.48;;;21.59;100.00
25869;BME280;13688;53.154;18.136;2023-08-12T22:11:21;100910.64;;;21.55;100.00
25869;BME280;13688;53.154;18.136;2023-08-12T22:16:44;100909.48;;;21.49;100.00
25869;BME280;13688;53.154;18.136;2023-08-12T22:22:07;100905.25;;;21.47;100.00
25869;BME280;13688;53.154;18.136;2023-08-12T22:27:34;100912.48;;;21.39;100.00
25869;BME280;13688;53.154;18.136;2023-08-12T22:32:57;100907.08;;;21.31;100.00
25869;BME280;13688;53.154;18.136;2023-08-12T22:38:21;100911.64;;;21.16;100.00
25869;BME280;13688;53.154;18.136;2023-08-12T22:43:44;100910.78;;;20.93;100.00
25869;BME280;13688;53.154;18.136;2023-08-12T22:49:08;100903.56;;;21.00;100.00
25869;BME280;13688;53.154;18.136;2023-08-12T22:54:32;100892.38;;;21.09;100.00
25869;BME280;13688;53.154;18.136;2023-08-12T22:59:56;100896.06;;;20.48;100.00
25869;BME280;13688;53.154;18.136;2023-08-12T23:05:21;100897.58;;;20.50;100.00
25869;BME280;13688;53.154;18.136;2023-08-12T23:10:46;100889.38;;;20.50;100.00
25869;BME280;13688;53.154;18.136;2023-08-12T23:16:09;100874.64;;;20.60;100.00
25869;BME280;13688;53.154;18.136;2023-08-12T23:21:33;100872.90;;;20.67;100.00
25869;BME280;13688;53.154;18.136;2023-08-12T23:26:56;100880.35;;;20.73;100.00
25869;BME280;13688;53.154;18.136;2023-08-12T23:32:19;100870.83;;;20.69;100.00
25869;BME280;13688;53.154;18.136;2023-08-12T23:37:44;100871.91;;;20.60;100.00
25869;BME280;13688;53.154;18.136;2023-08-12T23:43:08;100872.09;;;20.58;100.00
25869;BME280;13688;53.154;18.136;2023-08-12T23:48:33;100872.39;;;20.63;100.00
25869;BME280;13688;53.154;18.136;2023-08-12T23:53:57;100884.17;;;20.64;100.00
25869;BME280;13688;53.154;18.136;2023-08-12T23:59:21;100887.87;;;20.40;100.00
